Time;durP1;ratioP1;P1;durP2;ratioP2;P2;SDS_P1;SDS_P2;PMS_P1;PMS_P2;Temp;Humidity;BMP_temperature;BMP_pressure;BME280_temperature;BME280_humidity;BME280_pressure;Samples;Min_cycle;Max_cycle;Signal;HPM_P1;HPM_P2
2023/01/13 00:01:51;;;;;;;5.70;3.85;;;;;;;-4.30;69.76;100199.78;4912612;29;20036;-45
2023/01/13 00:04:17;;;;;;;10.50;2.60;;;;;;;-4.04;70.03;100243.78;4912455;29;20051;-50
2023/01/13 00:06:43;;;;;;;6.22;2.92;;;;;;;-4.05;69.97;100236.97;4911744;29;20528;-47
2023/01/13 00:09:09;;;;;;;5.40;2.97;;;;;;;-4.09;69.55;100241.91;4896927;29;20119;-47
2023/01/13 00:11:34;;;;;;;8.32;2.80;;;;;;;-4.15;69.63;100247.63;4913753;29;20139;-47
2023/01/13 00:14:00;;;;;;;6.00;3.03;;;;;;;-4.18;69.80;100229.75;4896184;29;20134;-46
2023/01/13 00:16:26;;;;;;;6.72;2.55;;;;;;;-4.08;70.12;100243.63;4912129;29;20067;-47
2023/01/13 00:18:52;;;;;;;4.90;2.53;;;;;;;-4.48;70.00;100171.22;4912376;29;20511;-47
2023/01/13 00:21:23;;;;;;;8.00;3.38;;;;;;;-4.19;70.27;100230.59;4912114;29;20059;-44
2023/01/13 00:23:50;;;;;;;5.95;3.35;;;;;;;-4.09;70.09;100226.66;4896439;29;20059;-46
2023/01/13 00:26:19;;;;;;;13.88;3.13;;;;;;;-4.11;69.92;100228.28;4912321;29;20044;-47
2023/01/13 00:28:45;;;;;;;6.30;3.15;;;;;;;-4.33;70.21;100198.78;4912014;29;20044;-49
2023/01/13 00:31:13;;;;;;;5.53;3.05;;;;;;;-4.18;70.28;100226.34;4909269;29;20416;-55
2023/01/13 00:33:40;;;;;;;5.28;2.85;;;;;;;-4.29;70.68;100229.38;4908343;29;20044;-47
2023/01/13 00:36:11;;;;;;;7.78;3.30;;;;;;;-4.48;70.59;100201.69;4909668;29;20050;-46
2023/01/13 00:38:38;;;;;;;7.35;3.80;;;;;;;-4.21;71.01;100229.66;4911338;29;20080;-45
2023/01/13 00:41:06;;;;;;;5.90;2.53;;;;;;;-4.48;70.41;100180.50;4907544;29;20084;-48
2023/01/13 00:43:34;;;;;;;4.78;2.55;;;;;;;-4.36;70.85;100207.19;4904119;29;20044;-47
2023/01/13 00:46:00;;;;;;;6.43;3.40;;;;;;;-4.46;70.60;100159.47;4907345;29;20044;-47
2023/01/13 00:48:26;;;;;;;5.32;3.15;;;;;;;-4.10;70.65;100222.41;4897237;29;20052;-46
2023/01/13 00:51:06;;;;;;;9.13;3.83;;;;;;;-4.10;70.63;100223.25;4911808;29;20122;-46
2023/01/13 00:53:33;;;;;;;;;;;;;;;-4.07;70.89;100220.81;4911808;29;20064;-48
2023/01/13 00:55:59;;;;;;;5.15;2.58;;;;;;;-4.11;70.94;100208.84;4911716;29;19927;-48
2023/01/13 00:58:25;;;;;;;6.07;2.22;;;;;;;-4.09;70.97;100213.97;4912700;29;20055;-46
2023/01/13 01:00:51;;;;;;;6.05;2.97;;;;;;;-4.11;70.80;100192.75;4912971;29;20048;-51
2023/01/13 01:03:17;;;;;;;6.55;2.60;;;;;;;-4.13;71.25;100195.22;4911698;29;20040;-47
2023/01/13 01:05:43;;;;;;;5.47;2.85;;;;;;;-4.20;71.40;100198.38;4895935;29;20047;-48
2023/01/13 01:08:09;;;;;;;3.40;2.00;;;;;;;-4.29;71.34;100185.38;4911162;29;20048;-50
2023/01/13 01:10:35;;;;;;;4.53;2.25;;;;;;;-4.32;71.62;100173.47;4912613;29;20535;-47
2023/01/13 01:13:01;;;;;;;6.55;3.15;;;;;;;-4.30;71.81;100171.00;4912801;29;20048;-45
2023/01/13 01:15:27;;;;;;;8.00;3.85;;;;;;;-4.23;71.76;100170.34;4911480;29;20570;-48
2023/01/13 01:17:52;;;;;;;4.82;2.05;;;;;;;-4.14;71.29;100172.34;4895778;29;20082;-47
2023/01/13 01:20:18;;;;;;;7.13;3.30;;;;;;;-4.25;71.74;100196.50;4910668;29;20472;-48
2023/01/13 01:22:44;;;;;;;4.78;2.33;;;;;;;-4.25;71.30;100168.59;4912796;29;20083;-45
2023/01/13 01:25:10;;;;;;;8.13;2.85;;;;;;;-4.27;71.79;100166.84;4909599;29;20048;-49
2023/01/13 01:27:36;;;;;;;7.20;3.75;;;;;;;-4.21;71.20;100156.03;4894272;29;20052;-48
2023/01/13 01:30:02;;;;;;;6.22;3.05;;;;;;;-4.43;71.63;100129.09;4906171;29;20063;-48
2023/01/13 01:32:29;;;;;;;9.63;3.45;;;;;;;-4.24;71.60;100170.31;4906326;29;20469;-49
2023/01/13 01:34:55;;;;;;;4.00;2.40;;;;;;;-4.25;71.56;100160.97;4903958;29;20044;-48
2023/01/13 01:37:21;;;;;;;7.65;3.20;;;;;;;-4.23;71.82;100167.81;4909978;29;20432;-48
2023/01/13 01:39:47;;;;;;;5.75;3.15;;;;;;;-4.17;71.95;100167.16;4911773;29;20111;-47
2023/01/13 01:45:23;;;;;;;4.90;2.53;;;;;;;-4.23;71.88;100156.78;4891624;29;20048;-44
2023/01/13 01:47:52;;;;;;;6.40;3.30;;;;;;;-4.24;72.29;100142.41;4902570;29;20496;-45
2023/01/13 01:50:18;;;;;;;6.10;2.95;;;;;;;-4.21;72.26;100133.19;4890424;29;20067;-53
2023/01/13 01:52:50;;;;;;;3.15;2.08;;;;;;;-4.45;72.10;100104.50;4917160;29;20162;-47
2023/01/13 01:55:22;;;;;;;5.35;3.35;;;;;;;-4.22;72.41;100120.44;4912016;29;20122;-48
2023/01/13 01:58:01;;;;;;;6.45;2.70;;;;;;;-4.22;72.18;100123.84;4895588;29;20044;-47
2023/01/13 02:00:31;;;;;;;3.80;2.38;;;;;;;-4.22;72.03;100139.09;4904769;29;20055;-46
2023/01/13 02:02:58;;;;;;;7.88;3.55;;;;;;;-4.22;71.77;100113.69;4910860;29;20421;-46
2023/01/13 02:05:24;;;;;;;6.05;3.00;;;;;;;-4.17;71.96;100124.84;4898516;29;20526;-46
2023/01/13 02:07:52;;;;;;;7.97;3.97;;;;;;;-4.12;72.11;100120.78;4915832;29;20559;-46
2023/01/13 02:10:20;;;;;;;4.10;2.78;;;;;;;-4.03;71.99;100122.75;4916103;29;20052;-47
2023/01/13 02:12:47;;;;;;;7.15;3.40;;;;;;;-4.04;71.83;100126.97;4915967;29;20040;-49
2023/01/13 02:15:20;;;;;;;6.38;2.83;;;;;;;-4.01;71.50;100109.28;4914559;29;20043;-50
2023/01/13 02:18:25;;;;;;;7.55;3.38;;;;;;;-3.95;71.61;100122.19;4914465;29;20051;-48
2023/01/13 02:20:54;;;;;;;6.60;3.58;;;;;;;-4.06;71.80;100105.75;4915615;29;20048;-46
2023/01/13 02:27:04;;;;;;;10.40;4.03;;;;;;;-4.07;72.04;100131.09;4898668;29;20052;-47
2023/01/13 02:32:57;;;;;;;5.03;3.03;;;;;;;-4.01;71.59;100127.06;4914784;29;20044;-50
2023/01/13 02:35:47;;;;;;;6.25;3.63;;;;;;;-3.98;71.34;100123.78;4891275;29;20087;-46
2023/01/13 02:38:14;;;;;;;7.13;3.63;;;;;;;-4.09;71.76;100099.72;4896739;29;20048;-45
2023/01/13 02:40:47;;;;;;;7.90;3.60;;;;;;;-3.88;71.77;100118.16;4913115;29;20084;-48
2023/01/13 02:46:14;;;;;;;3.85;2.63;;;;;;;-3.90;70.97;100145.16;4894418;29;20044;-45
2023/01/13 02:48:43;;;;;;;5.53;3.25;;;;;;;-3.98;71.72;100139.84;4900821;29;20111;-49
2023/01/13 02:51:14;;;;;;;7.60;3.83;;;;;;;-3.80;71.16;100131.06;4911814;29;20142;-47
2023/01/13 02:53:42;;;;;;;6.55;2.72;;;;;;;-3.79;70.84;100127.72;4880839;29;20063;-48
2023/01/13 02:56:09;;;;;;;4.40;2.47;;;;;;;-3.82;71.08;100125.94;4914613;29;20511;-48
2023/01/13 02:58:36;;;;;;;7.13;2.75;;;;;;;-3.85;71.26;100143.63;4911906;29;20058;-46
2023/01/13 03:01:02;;;;;;;8.05;2.20;;;;;;;-3.83;70.67;100152.16;4905555;29;20078;-49
2023/01/13 03:03:31;;;;;;;2.85;1.92;;;;;;;-3.85;71.08;100124.19;4893612;29;20077;-48
2023/01/13 03:06:17;;;;;;;6.60;3.45;;;;;;;-3.82;71.07;100125.09;4905952;29;20151;-45
2023/01/13 03:08:54;;;;;;;7.70;3.22;;;;;;;-3.77;70.86;100114.25;4912209;29;20130;-49
2023/01/13 03:11:20;;;;;;;4.97;2.08;;;;;;;-3.72;70.87;100117.78;4908667;29;20048;-46
2023/01/13 03:14:22;;;;;;;3.50;2.53;;;;;;;-3.82;70.88;100103.06;4911951;29;20076;-49
2023/01/13 03:17:31;;;;;;;3.97;2.75;;;;;;;-3.87;70.85;100118.16;4908190;29;20056;-46
2023/01/13 03:20:00;;;;;;;4.72;2.65;;;;;;;-3.90;70.70;100115.56;4808506;29;20061;-49
2023/01/13 03:22:47;;;;;;;5.40;2.43;;;;;;;-3.93;70.65;100105.31;4840793;29;20144;-46
2023/01/13 03:25:35;;;;;;;2.58;2.03;;;;;;;-3.93;71.25;100112.06;4850964;29;20803;-48
2023/01/13 03:28:08;;;;;;;4.50;2.50;;;;;;;-4.01;71.16;100096.59;4853121;29;20056;-49
2023/01/13 03:30:42;;;;;;;4.57;2.45;;;;;;;-4.02;71.18;100114.31;4853931;29;20049;-49
2023/01/13 03:33:15;;;;;;;9.32;3.60;;;;;;;-4.08;71.43;100112.44;4823445;29;20117;-50
2023/01/13 03:35:47;;;;;;;6.70;2.42;;;;;;;-4.08;71.44;100114.16;4855134;29;20045;-45
2023/01/13 03:38:43;;;;;;;9.38;3.17;;;;;;;-4.04;71.57;100104.13;4855845;29;20525;-50
2023/01/13 03:41:53;;;;;;;7.28;2.95;;;;;;;-3.91;71.16;100096.06;4852207;29;20049;-50
2023/01/13 03:44:44;;;;;;;3.67;1.45;;;;;;;-4.02;70.93;100110.09;4844982;29;20150;-48
2023/01/13 03:47:23;;;;;;;5.22;2.72;;;;;;;-4.14;71.24;100121.56;4853595;29;20493;-50
2023/01/13 03:50:13;;;;;;;6.22;2.20;;;;;;;-4.13;70.91;100133.41;4832693;29;20056;-49
2023/01/13 03:52:43;;;;;;;9.15;2.35;;;;;;;-4.45;70.85;100082.50;4889317;29;20060;-50
2023/01/13 03:55:14;;;;;;;4.55;2.88;;;;;;;-4.27;71.62;100120.31;4916166;29;20122;-45
2023/01/13 03:58:05;;;;;;;7.45;2.67;;;;;;;-4.24;71.64;100120.44;4894015;29;20047;-47
2023/01/13 04:00:36;;;;;;;6.90;2.75;;;;;;;-4.20;71.47;100109.53;4908709;29;20083;-45
2023/01/13 04:03:16;;;;;;;4.43;1.52;;;;;;;-4.11;71.60;100116.56;4897042;29;20138;-47
2023/01/13 04:05:46;;;;;;;5.97;3.08;;;;;;;-4.13;71.25;100134.28;4896699;29;20437;-50
2023/01/13 04:08:24;;;;;;;2.65;1.40;;;;;;;-4.11;71.57;100124.19;4896885;29;20051;-50
2023/01/13 04:11:09;;;;;;;5.63;2.08;;;;;;;-4.17;71.57;100122.31;4895588;29;20056;-50
2023/01/13 04:13:38;;;;;;;4.60;2.25;;;;;;;-4.18;71.86;100135.81;4884949;29;20036;-48
2023/01/13 04:16:05;;;;;;;3.10;1.60;;;;;;;-4.16;71.75;100115.56;4912145;29;20040;-50
2023/01/13 04:18:31;;;;;;;5.03;2.45;;;;;;;-4.31;71.86;100099.06;4896275;29;20302;-46
2023/01/13 04:20:59;;;;;;;4.53;1.70;;;;;;;-4.17;71.92;100121.47;4912677;29;20044;-51
2023/01/13 04:23:26;;;;;;;6.55;2.75;;;;;;;-4.11;71.50;100126.72;4911940;29;20139;-51
2023/01/13 04:25:53;;;;;;;4.15;2.60;;;;;;;-4.15;71.52;100119.84;4911909;29;20096;-47
2023/01/13 04:28:19;;;;;;;4.13;2.55;;;;;;;-4.14;71.74;100126.66;4913136;29;20682;-49
2023/01/13 04:30:46;;;;;;;5.20;2.97;;;;;;;-4.08;72.05;100130.22;4879527;29;20071;-49
2023/01/13 04:33:13;;;;;;;10.50;3.50;;;;;;;-4.06;71.23;100120.97;4910004;29;20106;-52
2023/01/13 04:35:39;;;;;;;5.65;2.88;;;;;;;-4.15;71.61;100102.94;4894977;29;20040;-47
2023/01/13 04:38:11;;;;;;;5.18;2.80;;;;;;;-4.02;71.24;100127.00;4870796;29;20426;-47
2023/01/13 04:40:37;;;;;;;5.05;3.08;;;;;;;-4.00;71.33;100128.78;4908054;29;20044;-49
2023/01/13 04:43:03;;;;;;;4.60;2.72;;;;;;;-3.98;71.16;100128.84;4909992;29;20598;-46
2023/01/13 04:45:30;;;;;;;3.17;2.10;;;;;;;-4.01;71.03;100129.59;4886368;29;20044;-48
2023/01/13 04:47:56;;;;;;;6.22;3.22;;;;;;;-4.06;70.89;100120.13;4902544;29;20048;-45
2023/01/13 04:50:22;;;;;;;4.50;2.42;;;;;;;-3.98;70.55;100116.16;4903954;29;20036;-48
2023/01/13 04:52:49;;;;;;;3.13;1.33;;;;;;;-4.06;70.74;100115.03;4903808;29;20064;-50
2023/01/13 04:55:16;;;;;;;11.02;3.15;;;;;;;-4.11;71.04;100125.06;4904144;29;20064;-48
2023/01/13 04:57:42;;;;;;;5.25;2.92;;;;;;;-4.04;70.50;100121.91;4903934;29;20056;-47
2023/01/13 05:00:09;;;;;;;4.90;2.45;;;;;;;-4.01;70.45;100121.13;4908040;29;20069;-45
2023/01/13 05:02:35;;;;;;;5.45;2.80;;;;;;;-4.11;70.92;100132.66;4907434;29;20079;-51
2023/01/13 05:05:03;;;;;;;5.03;2.38;;;;;;;-4.11;71.11;100127.59;4910586;29;20060;-46
2023/01/13 05:07:29;;;;;;;4.55;3.17;;;;;;;-4.07;70.93;100139.56;4894854;29;20123;-47
2023/01/13 05:09:55;;;;;;;5.75;2.83;;;;;;;-4.05;70.86;100132.88;4911457;29;20052;-48
2023/01/13 05:17:51;;;;;;;7.00;1.80;;;;;;;-4.13;71.13;100141.03;4910657;29;20054;-49
2023/01/13 05:20:17;;;;;;;10.07;2.78;;;;;;;-4.06;71.50;100193.75;4910729;29;20043;-48
2023/01/13 05:25:27;;;;;;;6.82;2.15;;;;;;;-4.02;71.12;100160.88;4909480;29;20052;-46
2023/01/13 05:28:00;;;;;;;1.63;1.15;;;;;;;-4.01;71.10;100160.06;4908930;29;20570;-47
2023/01/13 05:30:28;;;;;;;4.13;2.28;;;;;;;-4.06;71.24;100158.19;4905917;29;20092;-45
2023/01/13 05:32:55;;;;;;;8.18;3.40;;;;;;;-4.08;71.33;100144.63;4901465;29;20051;-45
2023/01/13 05:35:21;;;;;;;6.28;3.78;;;;;;;-3.97;70.98;100146.66;4894956;29;20143;-45
2023/01/13 05:37:47;;;;;;;4.50;2.55;;;;;;;-3.88;71.33;100149.50;4908917;29;20107;-45
2023/01/13 05:43:19;;;;;;;4.50;2.63;;;;;;;-3.94;70.36;100163.66;4911301;29;20500;-46
2023/01/13 05:46:03;;;;;;;2.67;1.60;;;;;;;-4.24;70.84;100122.97;4907931;29;20139;-44
2023/01/13 05:48:34;;;;;;;5.65;3.35;;;;;;;-4.09;70.91;100161.53;4910009;29;20393;-44
2023/01/13 05:51:01;;;;;;;4.35;2.30;;;;;;;-4.12;70.82;100153.78;4908826;29;20072;-44
2023/01/13 05:53:27;;;;;;;7.82;3.00;;;;;;;-4.12;71.28;100151.25;4909153;29;20132;-47
2023/01/13 05:55:53;;;;;;;4.05;2.05;;;;;;;-4.16;70.58;100148.56;4903297;29;20579;-45
2023/01/13 05:58:20;;;;;;;2.08;1.50;;;;;;;-4.23;71.13;100142.44;4908602;29;20066;-43
2023/01/13 06:00:47;;;;;;;5.05;3.05;;;;;;;-4.44;71.38;100104.53;4904503;29;20056;-46
2023/01/13 06:03:13;;;;;;;2.95;1.92;;;;;;;-4.18;71.39;100148.50;4889460;29;20067;-45
2023/01/13 06:05:39;;;;;;;2.67;1.55;;;;;;;-4.12;71.48;100152.91;4906263;29;20432;-44
2023/01/13 06:08:06;;;;;;;7.15;3.65;;;;;;;-4.14;71.31;100135.13;4910729;29;20040;-45
2023/01/13 06:10:33;;;;;;;3.72;2.25;;;;;;;-4.10;70.96;100147.09;4909883;29;20040;-47
2023/01/13 06:13:00;;;;;;;4.72;2.28;;;;;;;-4.14;71.79;100132.59;4879058;29;20107;-48
2023/01/13 06:15:29;;;;;;;6.10;3.30;;;;;;;-4.15;71.28;100140.16;4872538;29;20044;-48
2023/01/13 06:17:56;;;;;;;6.90;3.58;;;;;;;-4.08;71.62;100147.97;4907181;29;20044;-46
2023/01/13 06:20:22;;;;;;;6.47;3.45;;;;;;;-4.05;71.27;100129.47;4909133;29;20516;-49
2023/01/13 06:22:50;;;;;;;11.45;3.75;;;;;;;-3.89;71.21;100135.06;4910997;29;20036;-47
2023/01/13 06:25:41;;;;;;;7.88;3.50;;;;;;;-3.90;70.90;100109.63;4879524;29;20056;-46
2023/01/13 06:28:07;;;;;;;3.90;2.22;;;;;;;-3.83;70.97;100124.22;4885383;29;20039;-46
2023/01/13 06:30:39;;;;;;;6.60;3.30;;;;;;;-3.88;70.78;100139.34;4906843;29;20051;-46
2023/01/13 06:33:08;;;;;;;5.30;2.85;;;;;;;-3.95;70.97;100132.34;4908458;29;20040;-45
2023/01/13 06:35:35;;;;;;;4.32;1.98;;;;;;;-4.02;71.27;100130.41;4907981;29;20592;-43
2023/01/13 06:38:03;;;;;;;7.35;3.95;;;;;;;-4.18;71.43;100095.22;4910198;29;20055;-46
2023/01/13 06:40:29;;;;;;;4.68;2.72;;;;;;;-3.94;71.24;100123.03;4909445;29;20047;-43
2023/01/13 06:43:13;;;;;;;7.00;3.20;;;;;;;-4.22;71.50;100088.31;4909759;29;20044;-45
2023/01/13 06:46:00;;;;;;;2.95;1.67;;;;;;;-3.96;71.29;100134.81;4907579;29;20140;-45
2023/01/13 06:48:31;;;;;;;8.48;1.92;;;;;;;-3.94;71.58;100134.06;4904217;29;20560;-43
2023/01/13 06:50:58;;;;;;;6.40;4.47;;;;;;;-3.89;71.35;100129.97;4910818;29;20052;-45
2023/01/13 06:53:24;;;;;;;8.52;3.97;;;;;;;-3.83;71.27;100126.78;4912044;29;20413;-44
2023/01/13 06:55:50;;;;;;;4.72;2.70;;;;;;;-3.98;70.90;100094.13;4908478;29;20508;-45
2023/01/13 06:58:16;;;;;;;7.20;3.60;;;;;;;-3.83;71.05;100116.63;4896491;29;20464;-52
2023/01/13 07:00:42;;;;;;;8.63;3.83;;;;;;;-3.68;71.22;100128.91;4912815;29;20127;-44
2023/01/13 07:03:15;;;;;;;5.20;3.38;;;;;;;-3.64;71.17;100131.56;4913052;29;20135;-45
2023/01/13 07:05:42;;;;;;;6.63;3.63;;;;;;;-3.57;71.13;100118.22;4912795;29;20043;-45
2023/01/13 07:08:09;;;;;;;9.50;4.38;;;;;;;-3.55;70.80;100129.28;4911020;29;20056;-46
2023/01/13 07:10:35;;;;;;;6.25;3.13;;;;;;;-3.65;70.73;100134.91;4896147;29;20051;-43
2023/01/13 07:15:59;;;;;;;7.72;4.22;;;;;;;-3.81;70.92;100142.03;4910088;29;20108;-43
2023/01/13 07:18:26;;;;;;;4.60;2.90;;;;;;;-4.06;70.83;100084.56;4895578;29;20044;-46
2023/01/13 07:20:59;;;;;;;6.45;3.88;;;;;;;-3.84;71.18;100137.72;4909724;29;20048;-46
2023/01/13 07:23:30;;;;;;;7.47;3.45;;;;;;;-3.76;70.21;100140.50;4910898;29;20048;-45
2023/01/13 07:25:57;;;;;;;5.03;2.92;;;;;;;-3.75;70.90;100157.47;4912345;29;20040;-49
2023/01/13 07:28:24;;;;;;;5.22;3.15;;;;;;;-3.76;70.61;100154.06;4914098;29;20108;-45
2023/01/13 07:30:50;;;;;;;9.02;3.35;;;;;;;-3.82;70.58;100150.50;4910370;29;20048;-46
2023/01/13 07:33:17;;;;;;;8.57;3.42;;;;;;;-3.76;70.44;100159.13;4909774;29;20135;-45
2023/01/13 07:35:44;;;;;;;8.15;4.20;;;;;;;-3.64;70.66;100166.28;4908592;29;20048;-46
2023/01/13 07:38:10;;;;;;;3.00;1.98;;;;;;;-3.68;70.69;100156.84;4912139;29;20091;-44
2023/01/13 07:40:36;;;;;;;2.33;1.42;;;;;;;-3.58;70.42;100166.47;4911323;29;20040;-46
2023/01/13 07:45:47;;;;;;;5.65;2.90;;;;;;;-3.60;70.21;100179.09;4913692;29;20044;-47
2023/01/13 07:48:13;;;;;;;6.45;2.85;;;;;;;-3.66;70.43;100168.75;4912043;29;20171;-46
2023/01/13 07:50:39;;;;;;;7.13;3.80;;;;;;;-3.60;70.06;100153.69;4905958;29;20056;-44
2023/01/13 07:53:04;;;;;;;5.90;2.70;;;;;;;-3.58;69.93;100158.84;4891369;29;21083;-46
2023/01/13 07:55:30;;;;;;;3.55;1.85;;;;;;;-3.71;70.12;100137.28;4893900;29;20437;-47
2023/01/13 07:57:56;;;;;;;6.95;3.75;;;;;;;-3.62;69.95;100159.56;4903097;29;20044;-44
2023/01/13 08:00:22;;;;;;;5.68;2.72;;;;;;;-3.73;70.08;100133.84;4907243;29;20059;-45
2023/01/13 08:02:48;;;;;;;5.28;3.05;;;;;;;-3.57;69.96;100148.72;4906585;29;20042;-43
2023/01/13 08:05:14;;;;;;;7.60;3.85;;;;;;;-3.58;70.09;100154.63;4901967;29;20048;-46
2023/01/13 08:07:40;;;;;;;3.20;2.05;;;;;;;-3.51;69.91;100153.13;4896421;29;20067;-44
2023/01/13 08:10:06;;;;;;;5.45;2.53;;;;;;;-3.63;70.05;100152.75;4906842;29;20052;-46
2023/01/13 08:15:17;;;;;;;5.57;2.85;;;;;;;-3.72;69.93;100122.00;4913953;29;20036;-46
2023/01/13 08:17:42;;;;;;;4.97;1.88;;;;;;;-3.53;70.20;100155.63;4912344;29;20504;-46
2023/01/13 08:20:09;;;;;;;3.92;2.05;;;;;;;-3.52;69.97;100153.94;4913280;29;20040;-44
2023/01/13 08:22:35;;;;;;;7.40;2.60;;;;;;;-3.57;69.98;100156.34;4913727;29;20044;-46
2023/01/13 08:25:01;;;;;;;2.35;1.20;;;;;;;-3.59;70.08;100155.44;4910552;29;20068;-45
2023/01/13 08:27:29;;;;;;;2.70;1.58;;;;;;;-3.58;70.16;100154.63;4910202;29;20094;-44
2023/01/13 08:29:55;;;;;;;3.00;1.70;;;;;;;-3.58;69.76;100157.16;4911517;29;20135;-42
2023/01/13 08:32:21;;;;;;;6.78;3.28;;;;;;;-3.51;69.65;100173.47;4909291;29;20051;-47
2023/01/13 08:34:47;;;;;;;4.10;2.70;;;;;;;-3.54;69.44;100164.06;4893944;29;20039;-46
2023/01/13 08:37:13;;;;;;;5.80;2.35;;;;;;;-3.57;69.75;100171.59;4909013;29;20044;-45
2023/01/13 08:39:39;;;;;;;6.38;3.28;;;;;;;-3.55;69.46;100164.00;4896061;29;20036;-45
2023/01/13 08:42:05;;;;;;;10.23;3.85;;;;;;;-3.44;69.80;100167.72;4896500;29;20504;-46
2023/01/13 08:44:31;;;;;;;5.28;3.10;;;;;;;-3.49;69.66;100154.00;4911119;29;20059;-45
2023/01/13 08:46:57;;;;;;;5.07;3.05;;;;;;;-3.50;69.42;100152.28;4896189;29;20071;-46
2023/01/13 08:49:24;;;;;;;4.72;1.92;;;;;;;-3.44;69.94;100157.56;4910376;29;20044;-48
2023/01/13 08:51:51;;;;;;;4.40;2.33;;;;;;;-3.48;69.93;100153.19;4908596;29;20035;-43
2023/01/13 08:54:17;;;;;;;5.25;2.78;;;;;;;-3.55;70.13;100148.75;4898592;29;20063;-43
2023/01/13 08:56:44;;;;;;;6.63;3.45;;;;;;;-3.50;69.80;100142.97;4908741;29;20055;-48
2023/01/13 08:59:15;;;;;;;5.40;2.88;;;;;;;-3.49;69.56;100120.97;4910819;29;20055;-46
2023/01/13 09:01:41;;;;;;;6.68;2.72;;;;;;;-3.49;69.71;100147.25;4912526;29;20048;-44
2023/01/13 09:04:16;;;;;;;8.95;3.03;;;;;;;-3.53;69.89;100145.44;4905930;29;20048;-47
2023/01/13 09:06:42;;;;;;;4.60;3.17;;;;;;;-3.45;70.04;100143.13;4893643;29;20041;-49
2023/01/13 09:09:08;;;;;;;7.75;3.83;;;;;;;-3.39;69.69;100133.13;4910841;29;20067;-45
2023/01/13 09:14:24;;;;;;;10.77;3.65;;;;;;;-3.43;69.66;100113.53;4908042;29;20067;-44
2023/01/13 09:16:50;;;;;;;5.40;3.38;;;;;;;-3.38;69.80;100134.84;4906899;29;20066;-47
2023/01/13 09:19:17;;;;;;;7.95;2.58;;;;;;;-3.26;69.54;100131.81;4894157;29;20044;-48
2023/01/13 09:21:43;;;;;;;11.75;4.55;;;;;;;-3.32;69.95;100136.72;4912330;29;20051;-47
2023/01/13 09:24:09;;;;;;;3.00;2.03;;;;;;;-3.33;69.86;100133.31;4912404;29;20048;-45
2023/01/13 09:26:36;;;;;;;6.82;4.07;;;;;;;-3.54;69.83;100104.75;4911852;29;20047;-48
2023/01/13 09:29:03;;;;;;;6.05;3.63;;;;;;;-3.45;70.19;100136.34;4901191;29;20047;-49
2023/01/13 09:31:33;;;;;;;6.38;3.53;;;;;;;-3.49;70.32;100133.69;4929484;29;20047;-52
2023/01/13 09:36:49;;;;;;;3.42;1.75;;;;;;;-3.45;70.71;100125.31;4911248;29;20411;-47
2023/01/13 09:39:14;;;;;;;5.72;2.50;;;;;;;-3.42;70.53;100105.09;4912553;29;20067;-49
2023/01/13 09:44:43;;;;;;;5.78;3.08;;;;;;;-3.38;70.58;100108.56;4911614;29;20555;-49
2023/01/13 09:47:54;;;;;;;7.63;3.50;;;;;;;-3.32;71.05;100106.22;4911669;29;20046;-52
2023/01/13 09:50:33;;;;;;;8.90;3.85;;;;;;;-3.27;70.38;100110.59;4862391;29;20056;-47
2023/01/13 09:52:59;;;;;;;7.22;3.28;;;;;;;-3.17;70.09;100121.88;4912351;29;20150;-47
2023/01/13 09:55:32;;;;;;;6.88;3.55;;;;;;;-3.24;70.58;100127.59;4912506;29;20055;-52
2023/01/13 09:58:00;;;;;;;5.05;2.63;;;;;;;-3.44;70.17;100119.44;4912292;29;20580;-49
2023/01/13 10:00:34;;;;;;;6.13;2.30;;;;;;;-3.37;70.55;100117.94;4912367;29;20055;-49
2023/01/13 10:03:03;;;;;;;3.95;2.22;;;;;;;-3.52;70.38;100120.91;4910788;29;20040;-49
2023/01/13 10:05:37;;;;;;;8.13;3.63;;;;;;;-3.56;70.95;100121.66;4910959;29;20061;-47
2023/01/13 10:08:33;;;;;;;9.02;3.40;;;;;;;-3.41;70.95;100122.06;4911109;29;20283;-48
2023/01/13 10:13:12;;;;;;;7.75;3.78;;;;;;;-3.42;70.72;100133.91;4899776;29;20127;-47
2023/01/13 10:13:56;;;;;;;4.40;2.53;;;;;;;-3.23;70.69;100126.78;4878920;29;20428;-46
2023/01/13 10:16:43;;;;;;;6.40;3.40;;;;;;;-3.33;70.93;100140.94;4892254;29;20103;-49
2023/01/13 10:19:25;;;;;;;6.50;3.65;;;;;;;-3.37;71.23;100149.28;4893028;29;20048;-44
2023/01/13 10:22:16;;;;;;;6.95;3.53;;;;;;;-3.44;71.27;100127.91;4910062;29;20071;-47
2023/01/13 10:25:33;;;;;;;6.55;3.53;;;;;;;-3.45;70.88;100127.88;4912658;29;20460;-50
2023/01/13 10:28:09;;;;;;;4.90;2.67;;;;;;;-3.82;71.67;100080.22;4902648;29;20069;-47
2023/01/13 10:30:38;;;;;;;3.25;2.08;;;;;;;-3.65;72.05;100116.28;4916455;29;20040;-46
2023/01/13 10:33:16;;;;;;;6.32;2.80;;;;;;;-3.66;72.06;100123.03;4915297;29;20357;-47
2023/01/13 10:35:59;;;;;;;6.45;2.72;;;;;;;-3.83;71.92;100075.09;4914183;29;20055;-46
2023/01/13 10:38:36;;;;;;;6.47;2.88;;;;;;;-3.80;71.49;100091.28;4915457;29;20130;-49
2023/01/13 10:41:18;;;;;;;5.75;2.05;;;;;;;-3.67;72.20;100112.84;4898504;29;20054;-51
2023/01/13 10:43:56;;;;;;;6.07;3.50;;;;;;;-3.67;71.99;100108.63;4898725;29;20053;-48
2023/01/13 10:46:22;;;;;;;5.40;3.15;;;;;;;-3.89;71.95;100055.47;4915701;29;20449;-46
2023/01/13 10:48:52;;;;;;;4.75;2.42;;;;;;;-3.49;71.92;100104.06;4915011;29;20075;-49
2023/01/13 10:51:19;;;;;;;9.38;3.55;;;;;;;-3.35;71.86;100112.09;4914963;29;20044;-47
2023/01/13 10:53:54;;;;;;;8.02;2.65;;;;;;;-3.35;71.93;100121.38;4895056;29;20469;-48
2023/01/13 10:56:22;;;;;;;7.03;3.83;;;;;;;-3.33;71.51;100115.50;4904578;29;20043;-46
2023/01/13 10:58:48;;;;;;;9.40;3.22;;;;;;;-3.24;71.15;100125.94;4914037;29;20051;-46
2023/01/13 11:01:25;;;;;;;7.15;3.90;;;;;;;-3.24;71.17;100103.03;4914212;29;20040;-49
2023/01/13 11:03:53;;;;;;;8.20;3.78;;;;;;;-2.96;70.93;100125.00;4913773;29;20047;-49
2023/01/13 11:06:24;;;;;;;8.70;4.18;;;;;;;-2.96;70.80;100124.13;4914047;29;20742;-45
2023/01/13 11:08:54;;;;;;;8.95;4.30;;;;;;;-2.88;70.57;100115.03;4913703;29;20066;-45
2023/01/13 11:11:42;;;;;;;10.85;4.90;;;;;;;-2.76;70.67;100120.44;4898063;29;20044;-47
2023/01/13 11:17:28;;;;;;;10.00;3.83;;;;;;;-2.93;70.16;100119.16;4913515;29;20127;-47
2023/01/13 11:20:20;;;;;;;8.40;3.58;;;;;;;-2.95;70.14;100123.31;4913512;29;20050;-47
2023/01/13 11:22:53;;;;;;;5.20;3.03;;;;;;;-3.04;70.36;100122.28;4874372;29;20044;-47
2023/01/13 11:25:41;;;;;;;9.77;3.60;;;;;;;-2.95;70.30;100129.28;4913349;29;20047;-47
2023/01/13 11:28:26;;;;;;;6.00;3.47;;;;;;;-2.72;70.26;100119.72;4914334;29;20052;-49
2023/01/13 11:30:57;;;;;;;8.15;4.22;;;;;;;-3.04;69.91;100089.22;4912567;29;20119;-46
2023/01/13 11:33:35;;;;;;;6.05;2.78;;;;;;;-2.87;70.05;100135.41;4913300;29;20054;-47
2023/01/13 11:36:15;;;;;;;5.72;3.05;;;;;;;-2.84;70.37;100132.97;4911809;29;20044;-46
2023/01/13 11:38:51;;;;;;;5.30;3.60;;;;;;;-2.89;70.06;100133.66;4914306;29;20040;-45
2023/01/13 11:41:26;;;;;;;3.75;2.40;;;;;;;-2.96;70.35;100139.41;4913036;29;20091;-48
2023/01/13 11:44:10;;;;;;;5.30;2.35;;;;;;;-2.92;70.32;100142.06;4914310;29;20091;-49
2023/01/13 11:46:36;;;;;;;12.73;3.88;;;;;;;-2.94;70.69;100141.19;4913043;29;20126;-48
2023/01/13 11:49:03;;;;;;;10.93;4.18;;;;;;;-3.07;70.57;100132.34;4912944;29;20071;-46
2023/01/13 11:51:43;;;;;;;4.63;3.00;;;;;;;-3.06;70.43;100154.41;4914416;29;20063;-49
2023/01/13 11:54:58;;;;;;;9.63;4.05;;;;;;;-3.11;71.20;100147.47;4897326;29;20078;-49
2023/01/13 11:57:34;;;;;;;6.65;3.45;;;;;;;-3.12;70.98;100140.66;4881776;29;20141;-46
2023/01/13 11:59:59;;;;;;;7.78;3.72;;;;;;;-3.07;71.14;100144.19;4912220;29;20071;-48
2023/01/13 12:02:47;;;;;;;10.18;3.55;;;;;;;-3.05;71.24;100140.03;4912519;29;20512;-48
2023/01/13 12:05:35;;;;;;;8.52;2.85;;;;;;;-3.10;71.18;100145.00;4912653;29;20130;-53
2023/01/13 12:08:17;;;;;;;7.03;2.33;;;;;;;-3.15;71.57;100140.59;4912598;29;20091;-50
2023/01/13 12:10:58;;;;;;;7.18;3.58;;;;;;;-3.23;71.77;100135.28;4912887;29;20072;-48
2023/01/13 12:13:33;;;;;;;7.93;3.10;;;;;;;-3.25;72.19;100142.03;4893347;29;20131;-48
2023/01/13 12:16:11;;;;;;;6.57;3.85;;;;;;;-3.19;71.75;100139.63;4893754;29;20043;-45
2023/01/13 12:19:10;;;;;;;7.97;4.00;;;;;;;-3.13;72.00;100146.56;4894400;29;20442;-45
2023/01/13 12:21:40;;;;;;;6.10;3.80;;;;;;;-3.16;71.73;100164.28;4880512;29;20115;-49
2023/01/13 12:24:18;;;;;;;6.68;3.47;;;;;;;-3.13;71.96;100160.16;4912300;29;20054;-49
2023/01/13 12:26:48;;;;;;;8.68;3.88;;;;;;;-3.27;71.40;100123.31;4896630;29;20036;-49
2023/01/13 12:29:19;;;;;;;5.30;3.38;;;;;;;-3.01;71.62;100146.91;4893756;29;20043;-46